Time;durP1;ratioP1;P1;durP2;ratioP2;P2;SDS_P1;SDS_P2;PMS_P1;PMS_P2;Temp;Humidity;BMP_temperature;BMP_pressure;BME280_temperature;BME280_humidity;BME280_pressure;Samples;Min_cycle;Max_cycle;Signal;HPM_P1;HPM_P2
2023/05/13 00:01:29;;;;;;;7.30;5.93;;;;;;;14.59;49.00;101463.38;4994065;28;20406;-78
2023/05/13 00:03:59;;;;;;;9.50;5.97;;;;;;;14.52;49.10;101463.44;5004659;28;20458;-77
2023/05/13 00:06:28;;;;;;;7.90;6.00;;;;;;;14.51;49.20;101466.34;4995646;28;20414;-78
2023/05/13 00:08:57;;;;;;;13.40;5.60;;;;;;;14.42;49.41;101459.47;4993013;28;20415;-77
2023/05/13 00:11:27;;;;;;;8.03;5.70;;;;;;;14.39;49.42;101462.59;4996837;28;20459;-77
2023/05/13 00:13:56;;;;;;;8.33;5.00;;;;;;;14.42;49.49;101465.75;4999037;28;20452;-77
2023/05/13 00:16:27;;;;;;;8.83;5.67;;;;;;;14.42;49.50;101467.63;5003761;28;20792;-77
2023/05/13 00:18:58;;;;;;;7.13;5.00;;;;;;;14.34;49.70;101460.47;5007926;28;20432;-77
2023/05/13 00:21:28;;;;;;;7.13;4.93;;;;;;;14.35;49.82;101467.59;5000289;28;20445;-78
2023/05/13 00:23:57;;;;;;;6.70;6.00;;;;;;;14.26;49.98;101469.72;5005951;28;20447;-77
2023/05/13 00:26:27;;;;;;;7.23;5.30;;;;;;;14.28;50.11;101464.91;4998352;28;20526;-78
2023/05/13 00:28:56;;;;;;;8.33;5.70;;;;;;;14.15;50.33;101466.81;4999297;28;20396;-78
2023/05/13 00:31:25;;;;;;;5.17;4.77;;;;;;;14.19;50.35;101466.16;5001615;28;20420;-78
2023/05/13 00:33:54;;;;;;;10.87;6.20;;;;;;;14.21;50.38;101472.25;5006499;28;20495;-77
2023/05/13 00:36:26;;;;;;;6.53;5.10;;;;;;;14.07;50.67;101470.59;5006761;28;20434;-77
2023/05/13 00:38:56;;;;;;;6.60;5.30;;;;;;;14.04;50.69;101471.00;5020918;28;20821;-77
2023/05/13 00:41:25;;;;;;;11.50;6.30;;;;;;;14.03;50.92;101477.53;5006437;28;20416;-78
2023/05/13 00:43:56;;;;;;;8.33;5.60;;;;;;;14.05;50.71;101477.28;5006779;28;20478;-77
2023/05/13 00:46:25;;;;;;;5.73;5.33;;;;;;;13.97;51.25;101481.06;5008309;28;20465;-78
2023/05/13 00:48:54;;;;;;;5.80;5.20;;;;;;;14.00;51.25;101491.53;5021108;28;20425;-77
2023/05/13 00:51:25;;;;;;;8.10;6.20;;;;;;;14.01;51.07;101487.75;5011693;28;20445;-77
2023/05/13 00:53:58;;;;;;;8.50;5.60;;;;;;;14.01;51.03;101482.31;5017182;28;20528;-78
2023/05/13 00:56:27;;;;;;;6.30;5.73;;;;;;;13.98;51.22;101487.34;5004172;28;20405;-77
2023/05/13 00:58:57;;;;;;;7.20;4.90;;;;;;;13.92;51.56;101486.31;5006031;28;20429;-77
2023/05/13 01:01:36;;;;;;;9.63;5.87;;;;;;;13.92;51.29;101489.03;4998308;28;20441;-78
2023/05/13 01:04:25;;;;;;;8.20;5.60;;;;;;;14.01;51.18;101493.22;4999424;28;20469;-78
2023/05/13 01:07:04;;;;;;;9.73;5.37;;;;;;;14.05;51.16;101489.00;5003096;28;20420;-77
2023/05/13 01:09:44;;;;;;;9.13;5.43;;;;;;;14.04;51.30;101489.25;5003348;28;20405;-76
2023/05/13 01:12:21;;;;;;;8.60;5.50;;;;;;;14.01;51.36;101493.22;5001220;28;20431;-77
2023/05/13 01:14:58;;;;;;;7.63;6.63;;;;;;;13.93;51.59;101488.81;5010681;28;20452;-78
2023/05/13 01:20:12;;;;;;;8.10;4.63;;;;;;;13.98;51.30;101504.53;5000533;28;20461;-78
2023/05/13 01:22:43;;;;;;;9.00;6.53;;;;;;;14.03;51.16;101509.34;5014603;28;20454;-77
2023/05/13 01:25:12;;;;;;;6.47;5.43;;;;;;;14.02;51.38;101504.94;5001471;28;20446;-77
2023/05/13 01:27:42;;;;;;;5.27;4.83;;;;;;;13.88;51.55;101502.22;5004406;28;20460;-78
2023/05/13 01:30:13;;;;;;;6.50;5.77;;;;;;;13.88;51.58;101509.53;5020908;28;20457;-76
2023/05/13 01:32:43;;;;;;;5.13;4.67;;;;;;;13.81;51.81;101512.25;5002083;28;20413;-78
2023/05/13 01:35:13;;;;;;;12.50;5.80;;;;;;;13.77;52.05;101521.03;4998470;28;20455;-77
2023/05/13 01:37:47;;;;;;;8.93;6.77;;;;;;;13.77;51.91;101518.31;5000762;28;20444;-77
2023/05/13 01:40:17;;;;;;;5.83;5.00;;;;;;;13.69;52.26;101513.94;5003684;28;20416;-77
2023/05/13 01:43:04;;;;;;;11.50;5.53;;;;;;;13.59;52.68;101515.38;4995566;28;20499;-78
2023/05/13 01:45:33;;;;;;;9.10;5.47;;;;;;;13.49;52.72;101522.06;5002109;28;20523;-77
2023/05/13 01:48:03;;;;;;;7.73;6.00;;;;;;;13.60;52.68;101525.22;5001877;28;20463;-77
2023/05/13 01:50:47;;;;;;;6.70;5.50;;;;;;;13.49;52.93;101522.06;5001311;28;20472;-78
2023/05/13 01:53:18;;;;;;;11.73;7.23;;;;;;;13.45;53.30;101522.66;5011104;28;20443;-79
2023/05/13 01:55:48;;;;;;;6.40;5.80;;;;;;;13.39;53.47;101523.47;5000237;28;20471;-78
2023/05/13 01:58:18;;;;;;;9.67;6.60;;;;;;;13.34;53.58;101517.81;5002634;28;20410;-77
2023/05/13 02:00:47;;;;;;;7.27;5.23;;;;;;;13.35;53.49;101514.06;5018015;28;20400;-77
2023/05/13 02:03:16;;;;;;;8.97;5.73;;;;;;;13.28;53.72;101518.63;4999146;28;20470;-78
2023/05/13 02:05:47;;;;;;;6.70;6.00;;;;;;;13.26;53.94;101523.47;5001267;28;20440;-77
2023/05/13 02:08:18;;;;;;;5.47;5.00;;;;;;;13.29;53.83;101515.72;5004928;28;20756;-78
2023/05/13 02:10:55;;;;;;;8.50;6.33;;;;;;;13.21;54.11;101518.63;5001747;28;20428;-77
2023/05/13 02:13:25;;;;;;;9.40;6.73;;;;;;;13.12;54.56;101522.56;5004152;28;20424;-78
2023/05/13 02:15:54;;;;;;;8.83;6.57;;;;;;;13.06;54.87;101524.19;5004924;28;20414;-79
2023/05/13 02:18:24;;;;;;;7.87;6.13;;;;;;;13.13;54.38;101524.22;5000387;28;20427;-76
2023/05/13 02:20:53;;;;;;;11.33;7.73;;;;;;;13.00;55.00;101521.44;5004295;28;20403;-78
2023/05/13 02:23:23;;;;;;;8.93;7.93;;;;;;;12.95;55.33;101523.94;4997656;28;20485;-77
2023/05/13 02:25:52;;;;;;;7.83;6.43;;;;;;;12.91;55.11;101522.66;5001755;28;20444;-78
2023/05/13 02:28:21;;;;;;;11.27;6.53;;;;;;;12.78;55.77;101515.28;5001126;28;20412;-78
2023/05/13 02:30:51;;;;;;;8.60;5.53;;;;;;;12.86;55.41;101517.84;5002768;28;20413;-77
2023/05/13 02:33:20;;;;;;;7.23;5.90;;;;;;;12.79;55.59;101524.25;5017284;28;20462;-78
2023/05/13 02:35:49;;;;;;;7.30;5.83;;;;;;;12.71;56.02;101524.44;4995378;28;20472;-77
2023/05/13 02:38:18;;;;;;;7.90;6.30;;;;;;;12.68;56.09;101527.56;5007867;28;20413;-77
2023/05/13 02:40:49;;;;;;;8.00;5.53;;;;;;;12.73;55.83;101525.09;5005023;28;20422;-78
2023/05/13 02:43:19;;;;;;;9.00;6.50;;;;;;;12.70;55.95;101531.75;5003543;28;20477;-78
2023/05/13 02:45:55;;;;;;;7.80;5.60;;;;;;;12.78;55.65;101525.31;4998569;28;20432;-79
2023/05/13 02:48:25;;;;;;;6.70;5.90;;;;;;;12.79;55.62;101530.53;4996353;28;20791;-77
2023/05/13 02:50:54;;;;;;;6.60;5.90;;;;;;;12.73;55.87;101527.81;5010039;28;20942;-77
2023/05/13 02:53:24;;;;;;;8.43;5.90;;;;;;;12.68;55.97;101527.56;4988917;28;20476;-78
2023/05/13 02:55:58;;;;;;;6.03;5.20;;;;;;;12.68;55.94;101524.84;4993028;28;20423;-77
2023/05/13 02:58:27;;;;;;;6.10;5.53;;;;;;;12.68;55.84;101522.13;5022017;28;20980;-77
2023/05/13 03:00:57;;;;;;;8.80;6.23;;;;;;;12.77;55.66;101534.50;5013372;28;20822;-78
2023/05/13 03:03:26;;;;;;;6.90;6.20;;;;;;;12.79;55.50;101535.97;5001868;28;20482;-77
2023/05/13 03:05:55;;;;;;;7.77;6.97;;;;;;;12.71;55.69;101529.88;5006234;28;20472;-77
2023/05/13 03:08:26;;;;;;;11.10;7.13;;;;;;;12.74;55.54;101537.59;5022391;28;20416;-78
2023/05/13 03:10:57;;;;;;;6.70;5.80;;;;;;;12.80;55.24;101543.09;4992058;28;20427;-78
2023/05/13 03:13:26;;;;;;;8.10;6.70;;;;;;;12.85;54.98;101534.31;5002250;28;20779;-78
2023/05/13 03:15:57;;;;;;;6.90;5.93;;;;;;;12.84;55.03;101540.78;4996922;28;20432;-78
2023/05/13 03:18:27;;;;;;;6.27;5.03;;;;;;;12.83;55.04;101541.84;5000206;28;20426;-77
2023/05/13 03:20:56;;;;;;;8.20;5.60;;;;;;;12.82;55.12;101551.03;4995638;28;20812;-77
2023/05/13 03:23:26;;;;;;;7.97;5.20;;;;;;;12.93;54.60;101542.28;5002256;28;20444;-77
2023/05/13 03:26:00;;;;;;;8.83;6.13;;;;;;;12.85;54.68;101539.75;5004049;28;20436;-77
2023/05/13 03:28:30;;;;;;;6.37;5.87;;;;;;;12.86;54.70;101542.28;4996503;28;20428;-78
2023/05/13 03:30:59;;;;;;;6.80;6.20;;;;;;;12.90;54.45;101543.56;4990042;28;20422;-77
2023/05/13 03:33:35;;;;;;;8.10;5.30;;;;;;;12.85;54.71;101546.03;5004065;28;20475;-78
2023/05/13 03:36:05;;;;;;;9.97;5.73;;;;;;;12.81;54.89;101552.06;5001322;28;20408;-77
2023/05/13 03:38:34;;;;;;;6.20;5.60;;;;;;;12.82;54.63;101557.31;4999576;28;20408;-78
2023/05/13 03:41:04;;;;;;;5.97;5.23;;;;;;;12.79;54.81;101552.25;4998826;28;20425;-77
2023/05/13 03:43:33;;;;;;;12.43;6.37;;;;;;;12.86;54.60;101552.31;5006613;28;20431;-78
2023/05/13 03:46:07;;;;;;;8.57;5.80;;;;;;;12.83;54.59;101548.09;4992418;28;20462;-77
2023/05/13 03:48:38;;;;;;;8.80;6.60;;;;;;;12.95;54.19;101551.09;5000669;28;20474;-79
2023/05/13 03:51:07;;;;;;;8.17;6.33;;;;;;;13.35;53.04;101552.13;5005895;28;20510;-78
2023/05/13 03:53:36;;;;;;;7.77;6.97;;;;;;;13.54;52.39;101547.78;5008465;28;20439;-77
2023/05/13 03:56:07;;;;;;;9.17;6.70;;;;;;;13.59;52.33;101548.00;5007443;28;20400;-78
2023/05/13 03:58:36;;;;;;;7.90;6.90;;;;;;;14.13;51.10;101556.84;5009325;28;20436;-78
2023/05/13 04:01:06;;;;;;;6.30;5.17;;;;;;;14.81;49.10;101560.16;5012046;28;20460;-80
2023/05/13 04:03:35;;;;;;;9.30;5.57;;;;;;;15.14;48.25;101569.03;5002308;28;20440;-79
2023/05/13 04:06:05;;;;;;;7.20;6.50;;;;;;;15.71;46.79;101567.31;5008959;28;20473;-77
2023/05/13 04:08:34;;;;;;;8.60;6.50;;;;;;;16.25;45.70;101574.88;5022002;28;20444;-77
2023/05/13 04:11:03;;;;;;;12.40;5.83;;;;;;;16.58;44.79;101579.19;5005854;28;20398;-77
2023/05/13 04:13:34;;;;;;;8.33;6.03;;;;;;;16.55;44.40;101585.97;5011886;28;20493;-77
2023/05/13 04:16:03;;;;;;;7.60;5.83;;;;;;;16.54;44.54;101584.28;5004607;28;20429;-77
2023/05/13 04:18:33;;;;;;;8.67;6.70;;;;;;;16.82;43.83;101586.56;5015810;28;20420;-77
2023/05/13 04:21:07;;;;;;;8.70;5.70;;;;;;;17.00;43.46;101583.81;5016141;28;20417;-78
2023/05/13 04:23:36;;;;;;;7.17;6.47;;;;;;;17.19;42.93;101581.91;5019422;28;20489;-79
2023/05/13 04:26:05;;;;;;;7.27;5.70;;;;;;;17.74;41.95;101597.22;5022869;28;20897;-78
2023/05/13 04:28:36;;;;;;;8.50;6.10;;;;;;;18.24;40.91;101602.34;5009418;28;20544;-78
2023/05/13 04:31:05;;;;;;;6.97;6.30;;;;;;;17.09;42.61;101603.53;5025893;28;20500;-77
2023/05/13 04:33:36;;;;;;;9.67;7.10;;;;;;;16.33;44.47;101606.53;5003010;28;20446;-77
2023/05/13 04:36:06;;;;;;;6.60;5.50;;;;;;;16.93;43.55;101604.94;5014123;28;20406;-78
2023/05/13 04:38:35;;;;;;;7.40;6.70;;;;;;;17.52;42.25;101608.88;5010457;28;20476;-77
2023/05/13 04:41:05;;;;;;;6.63;6.03;;;;;;;18.26;40.79;101605.69;5006187;28;20490;-78
2023/05/13 04:43:41;;;;;;;5.60;5.10;;;;;;;18.25;40.41;101610.31;5007749;28;20582;-76
2023/05/13 04:46:12;;;;;;;6.10;5.03;;;;;;;18.01;40.50;101605.06;5011162;28;20461;-78
2023/05/13 04:48:41;;;;;;;9.00;6.03;;;;;;;18.28;40.39;101617.25;5001786;28;20454;-78
2023/05/13 04:51:11;;;;;;;7.17;5.97;;;;;;;18.73;39.21;101611.25;5009104;28;20441;-79
2023/05/13 04:53:41;;;;;;;7.20;6.03;;;;;;;18.93;39.08;101617.16;5105248;23;20426;31
2023/05/13 04:56:15;;;;;;;6.80;5.30;;;;;;;19.68;37.80;101617.16;4935489;29;20444;-70
2023/05/13 04:58:50;;;;;;;8.23;5.00;;;;;;;19.87;36.91;101621.38;4938274;29;20438;-70
2023/05/13 05:01:22;;;;;;;9.50;6.40;;;;;;;19.88;37.00;101615.63;4953469;29;20892;-70
2023/05/13 05:03:59;;;;;;;9.83;6.50;;;;;;;19.96;36.54;101617.97;4957300;28;20448;-70
2023/05/13 05:06:33;;;;;;;8.40;5.83;;;;;;;19.89;36.65;101622.81;4958143;28;20469;-69
2023/05/13 05:09:05;;;;;;;10.63;5.70;;;;;;;19.61;37.16;101631.00;4964459;28;20422;-69
2023/05/13 05:11:34;;;;;;;10.20;6.90;;;;;;;20.35;36.25;101627.22;4957255;29;21006;-68
2023/05/13 05:14:04;;;;;;;11.23;6.97;;;;;;;20.20;36.34;101635.16;4955528;28;20427;-70
2023/05/13 05:16:34;;;;;;;6.97;5.90;;;;;;;20.24;36.22;101625.31;4969978;28;20966;-70
2023/05/13 05:19:04;;;;;;;6.50;5.90;;;;;;;20.09;36.46;101633.31;4985897;28;20417;-70
2023/05/13 05:21:33;;;;;;;6.60;5.57;;;;;;;19.98;36.60;101633.38;4972768;29;20499;-68
2023/05/13 05:24:02;;;;;;;8.70;6.43;;;;;;;18.05;39.32;101637.22;4973985;28;20473;-70
2023/05/13 05:26:31;;;;;;;7.13;6.13;;;;;;;16.69;42.60;101631.28;4958842;29;20456;-68
2023/05/13 05:28:59;;;;;;;6.03;5.43;;;;;;;15.92;43.99;101628.91;4957612;28;20441;-69
2023/05/13 05:31:30;;;;;;;7.97;7.17;;;;;;;15.59;45.19;101624.44;4971611;28;20456;-67
2023/05/13 05:34:02;;;;;;;7.83;5.70;;;;;;;15.53;45.10;101640.88;4970981;28;20911;-68
2023/05/13 05:36:32;;;;;;;13.97;6.27;;;;;;;15.54;45.50;101637.09;4950863;28;20421;-67
2023/05/13 05:39:03;;;;;;;24.63;6.37;;;;;;;15.45;45.82;101641.06;4971431;28;20452;-69
2023/05/13 05:41:34;;;;;;;8.03;6.10;;;;;;;15.60;45.27;101642.50;4954685;29;20797;-68
2023/05/13 05:44:03;;;;;;;7.40;5.80;;;;;;;15.72;44.83;101634.47;4951254;29;20508;-70
2023/05/13 05:46:37;;;;;;;6.00;5.50;;;;;;;15.78;44.91;101639.03;4971243;28;20472;-70
2023/05/13 05:49:08;;;;;;;10.00;6.60;;;;;;;15.84;44.80;101643.63;4964906;28;20427;-69
2023/05/13 05:51:37;;;;;;;7.07;4.80;;;;;;;15.89;44.98;101648.44;4964894;28;20436;-66
2023/05/13 05:54:08;;;;;;;8.27;5.63;;;;;;;15.94;44.42;101644.00;4947912;29;20606;-69
2023/05/13 05:56:38;;;;;;;10.20;5.00;;;;;;;16.14;43.22;101643.03;4955011;28;20416;-69
2023/05/13 05:59:07;;;;;;;9.63;4.37;;;;;;;16.24;42.83;101643.38;4956330;28;20801;-68
2023/05/13 06:01:37;;;;;;;5.80;5.30;;;;;;;16.31;42.58;101644.19;4951574;29;20445;-69
2023/05/13 06:04:06;;;;;;;7.30;5.03;;;;;;;16.46;42.33;101652.84;4954481;29;20461;-69
2023/05/13 06:06:36;;;;;;;10.10;6.80;;;;;;;16.70;42.46;101656.72;4970760;28;20441;-69
2023/05/13 06:09:06;;;;;;;9.60;6.43;;;;;;;16.72;42.24;101652.69;4964256;28;20452;-69
2023/05/13 06:11:35;;;;;;;6.80;5.97;;;;;;;16.90;41.39;101649.97;4954863;28;20429;-69
2023/05/13 06:14:04;;;;;;;8.47;5.67;;;;;;;16.95;41.33;101646.56;4953943;29;20456;-69
2023/05/13 06:16:33;;;;;;;6.67;5.70;;;;;;;17.06;41.03;101647.72;4970888;28;20532;-70
2023/05/13 06:19:04;;;;;;;5.20;4.70;;;;;;;17.19;40.71;101650.28;4955844;28;20955;-70
2023/05/13 06:21:33;;;;;;;6.60;4.80;;;;;;;17.21;39.89;101650.91;4954745;28;20485;-70
2023/05/13 06:24:03;;;;;;;6.50;5.33;;;;;;;17.27;40.35;101650.84;4955480;28;20463;-68
2023/05/13 06:26:32;;;;;;;5.80;5.13;;;;;;;17.32;40.37;101658.38;4950523;28;20468;-67
2023/05/13 06:29:01;;;;;;;5.13;4.73;;;;;;;17.56;40.10;101664.81;4970502;28;20448;-69
2023/05/13 06:31:34;;;;;;;5.90;5.30;;;;;;;17.77;39.52;101646.00;4955580;28;20450;-68
2023/05/13 06:34:05;;;;;;;6.17;4.53;;;;;;;18.02;39.03;101658.72;4953370;29;20433;-69
2023/05/13 06:36:34;;;;;;;7.50;4.80;;;;;;;17.85;38.88;101657.72;4969136;28;20423;-70
2023/05/13 06:39:05;;;;;;;9.10;5.40;;;;;;;17.78;39.60;101653.16;4954487;29;20541;-70
2023/05/13 06:41:42;;;;;;;12.83;5.73;;;;;;;17.87;39.43;101647.34;4953169;29;20453;-69
2023/05/13 06:44:15;;;;;;;5.03;4.47;;;;;;;17.79;39.59;101643.91;4964185;28;20531;-68
2023/05/13 06:46:47;;;;;;;5.43;4.93;;;;;;;17.85;39.03;101646.78;4952638;29;20986;-69
2023/05/13 06:49:17;;;;;;;9.20;5.27;;;;;;;17.87;38.63;101656.41;4955379;28;20528;-68
2023/05/13 06:51:47;;;;;;;8.73;4.63;;;;;;;17.90;38.15;101655.13;4954252;28;20593;-69
2023/05/13 06:54:15;;;;;;;6.70;5.67;;;;;;;17.82;38.25;101650.78;4943576;29;20470;-68
2023/05/13 06:56:44;;;;;;;5.20;4.70;;;;;;;17.97;38.38;101645.75;4955046;28;20450;-69
2023/05/13 06:59:14;;;;;;;7.73;4.73;;;;;;;17.98;39.02;101647.41;4956834;28;20952;-69
2023/05/13 07:01:43;;;;;;;5.70;5.20;;;;;;;18.15;39.52;101642.13;4955936;29;20730;-69
2023/05/13 07:04:12;;;;;;;6.23;4.90;;;;;;;18.12;39.12;101642.56;4955328;28;20533;-69
2023/05/13 07:06:43;;;;;;;6.20;5.60;;;;;;;18.01;39.24;101637.91;4954425;28;20417;-68
2023/05/13 07:09:12;;;;;;;7.83;4.80;;;;;;;18.08;38.97;101635.91;4955263;29;20909;-69
2023/05/13 07:11:41;;;;;;;6.53;4.67;;;;;;;18.02;38.44;101636.81;4952806;28;20774;-67
2023/05/13 07:14:10;;;;;;;5.67;4.70;;;;;;;18.09;38.92;101638.41;4950209;29;20517;-70
2023/05/13 07:16:39;;;;;;;5.97;5.47;;;;;;;18.38;38.82;101631.22;4956188;28;20417;-69
2023/05/13 07:19:08;;;;;;;5.37;4.90;;;;;;;18.65;37.66;101626.13;4953143;29;20433;-70
2023/05/13 07:21:38;;;;;;;7.30;4.70;;;;;;;18.31;36.79;101624.16;4954048;29;20410;-69
2023/05/13 07:24:08;;;;;;;4.40;4.00;;;;;;;18.33;36.05;101622.03;4960187;29;20452;-70
2023/05/13 07:26:37;;;;;;;5.10;4.60;;;;;;;18.45;36.70;101615.47;4970189;29;20434;-68
2023/05/13 07:29:06;;;;;;;4.93;4.40;;;;;;;18.49;35.73;101622.16;4968591;29;20483;-69
2023/05/13 07:31:35;;;;;;;4.60;4.13;;;;;;;18.62;35.35;101621.97;4968828;28;20469;-69
2023/05/13 07:34:04;;;;;;;5.13;4.10;;;;;;;18.56;34.32;101622.91;4965647;29;20884;-69
2023/05/13 07:36:33;;;;;;;10.20;6.23;;;;;;;18.62;33.99;101611.00;4965089;28;20545;-69
2023/05/13 07:39:02;;;;;;;9.13;4.30;;;;;;;18.88;33.82;101619.81;4965863;29;20438;-66
2023/05/13 07:41:33;;;;;;;4.90;4.50;;;;;;;18.76;33.04;101613.50;4980174;28;20447;-69
2023/05/13 07:44:01;;;;;;;6.07;4.43;;;;;;;18.90;33.20;101621.25;4959533;28;20429;-70
2023/05/13 07:46:30;;;;;;;5.70;3.50;;;;;;;18.96;32.38;101611.22;4962814;29;20431;-69
2023/05/13 07:48:59;;;;;;;5.47;4.23;;;;;;;19.00;32.28;101607.75;4957001;29;20441;-69
2023/05/13 07:51:28;;;;;;;5.03;4.20;;;;;;;18.94;31.99;101613.34;4960889;29;20823;-66
2023/05/13 07:53:57;;;;;;;4.83;4.33;;;;;;;19.01;31.76;101605.84;4958365;29;20442;-68
2023/05/13 07:56:26;;;;;;;6.43;4.17;;;;;;;19.21;31.65;101609.03;4965826;29;20868;-68
2023/05/13 07:58:57;;;;;;;8.80;3.97;;;;;;;19.26;30.97;101606.41;4958849;28;20406;-67
2023/05/13 08:01:27;;;;;;;5.10;4.20;;;;;;;19.24;30.46;101600.31;4968891;29;20447;-69
2023/05/13 08:03:56;;;;;;;9.07;3.90;;;;;;;19.33;30.01;101600.75;4965785;29;20460;-68
2023/05/13 08:06:25;;;;;;;11.20;3.70;;;;;;;19.24;30.40;101594.81;4961902;29;20446;-69
2023/05/13 08:08:53;;;;;;;6.13;3.80;;;;;;;19.19;30.27;101600.22;4963887;29;20553;-69
2023/05/13 08:11:22;;;;;;;6.70;4.07;;;;;;;19.34;30.56;101600.53;4966733;28;20423;-69
2023/05/13 08:13:51;;;;;;;8.60;3.50;;;;;;;19.10;30.97;101607.97;4965768;28;20428;-69
2023/05/13 08:16:22;;;;;;;4.60;4.20;;;;;;;19.16;31.41;101611.69;4962734;28;20436;-66
2023/05/13 08:18:51;;;;;;;5.13;4.30;;;;;;;19.33;31.39;101609.84;4961840;28;20406;-68
2023/05/13 08:21:20;;;;;;;5.83;4.07;;;;;;;19.49;31.41;101611.84;4958776;29;20420;-69
2023/05/13 08:23:50;;;;;;;6.80;4.53;;;;;;;19.72;31.39;101601.84;4961635;29;20428;-67
2023/05/13 08:26:19;;;;;;;4.63;3.80;;;;;;;19.85;31.27;101604.28;4963395;28;20446;-70
2023/05/13 08:28:48;;;;;;;4.13;3.73;;;;;;;20.08;30.96;101614.34;4961987;28;20459;-69
2023/05/13 08:31:23;;;;;;;9.30;4.10;;;;;;;19.84;31.22;101608.13;4960449;29;20432;-68
2023/05/13 08:33:53;;;;;;;7.73;4.67;;;;;;;19.85;31.14;101615.28;4962594;28;20423;-67
2023/05/13 08:36:24;;;;;;;5.87;3.80;;;;;;;20.00;30.88;101612.81;4966368;28;20432;-69
2023/05/13 08:38:53;;;;;;;9.10;4.57;;;;;;;20.02;31.19;101615.31;4964269;28;20494;-68
2023/05/13 08:41:22;;;;;;;4.80;4.30;;;;;;;20.28;31.07;101618.25;4962769;28;20428;-70
2023/05/13 08:43:54;;;;;;;6.27;3.87;;;;;;;20.18;30.88;101612.59;4963013;28;20422;-70
2023/05/13 08:46:27;;;;;;;6.90;4.00;;;;;;;20.29;31.46;101611.69;4965218;28;20452;-69
2023/05/13 08:48:56;;;;;;;4.03;3.50;;;;;;;20.21;30.86;101612.09;4967227;28;20443;-68
2023/05/13 08:51:25;;;;;;;4.50;3.53;;;;;;;20.22;31.32;101627.50;4966791;28;20407;-69
2023/05/13 08:53:56;;;;;;;7.67;4.53;;;;;;;20.36;31.24;101623.38;4963449;29;20504;-69
2023/05/13 08:56:27;;;;;;;5.43;4.00;;;;;;;20.45;30.87;101614.72;4964520;28;20442;-69
2023/05/13 08:58:56;;;;;;;6.53;3.70;;;;;;;20.51;30.70;101620.06;4964913;29;20500;-69
2023/05/13 09:01:27;;;;;;;6.50;4.40;;;;;;;20.29;30.59;101622.66;4966500;28;20414;-69
2023/05/13 09:04:06;;;;;;;8.57;4.40;;;;;;;20.28;30.82;101621.00;4963348;29;20510;-69
2023/05/13 09:06:35;;;;;;;4.70;4.10;;;;;;;20.46;30.20;101611.72;4963477;28;20438;-66
2023/05/13 09:09:05;;;;;;;7.33;4.13;;;;;;;20.27;29.98;101602.88;4963884;28;20460;-69
2023/05/13 09:11:34;;;;;;;5.47;4.90;;;;;;;20.47;30.28;101610.66;4961493;29;20461;-67
2023/05/13 09:14:06;;;;;;;4.70;4.30;;;;;;;20.67;29.95;101607.38;4964198;28;20427;-67
2023/05/13 09:16:37;;;;;;;5.43;3.97;;;;;;;20.48;29.79;101616.97;4963209;28;20794;-69
2023/05/13 09:19:07;;;;;;;8.00;4.20;;;;;;;20.67;30.22;101612.88;4962700;29;20444;-69
2023/05/13 09:21:36;;;;;;;4.67;4.23;;;;;;;20.61;30.09;101609.22;4963484;28;20443;-68
2023/05/13 09:24:11;;;;;;;8.93;4.80;;;;;;;20.86;30.18;101602.44;4968861;28;20457;-69
2023/05/13 09:26:41;;;;;;;7.60;5.20;;;;;;;20.90;29.10;101589.81;4964142;28;20432;-72
2023/05/13 09:29:22;;;;;;;6.40;3.80;;;;;;;20.97;29.82;101599.56;4964154;28;20457;-71
2023/05/13 09:31:54;;;;;;;6.47;3.93;;;;;;;20.89;29.61;101591.75;4966298;28;20473;-68
2023/05/13 09:34:28;;;;;;;4.57;3.80;;;;;;;20.87;29.29;101593.91;4965448;29;20485;-69
2023/05/13 09:36:59;;;;;;;11.63;4.60;;;;;;;20.69;29.75;101599.69;4962641;29;20433;-69
2023/05/13 09:39:29;;;;;;;5.87;4.33;;;;;;;20.75;29.80;101598.69;4964749;28;20419;-69
2023/05/13 09:42:02;;;;;;;6.27;4.03;;;;;;;20.82;29.68;101591.06;4964994;29;20445;-68
2023/05/13 09:44:33;;;;;;;4.60;4.20;;;;;;;21.24;29.81;101581.25;4954302;28;20560;-69
2023/05/13 09:47:04;;;;;;;5.93;4.07;;;;;;;21.56;29.07;101586.84;4958554;28;20440;-71
2023/05/13 09:49:33;;;;;;;4.50;4.10;;;;;;;21.55;28.85;101587.09;4962446;29;20523;-66
2023/05/13 09:52:08;;;;;;;4.57;4.17;;;;;;;21.49;29.21;101593.66;4962829;28;20432;-70
2023/05/13 09:54:38;;;;;;;6.47;5.87;;;;;;;21.48;28.89;101583.72;4964089;28;20467;-70
2023/05/13 09:57:07;;;;;;;3.83;3.40;;;;;;;21.59;28.60;101589.06;4977831;28;20424;-68
2023/05/13 09:59:36;;;;;;;4.30;3.90;;;;;;;21.59;28.82;101594.59;4964071;28;20402;-68
2023/05/13 10:02:09;;;;;;;5.10;4.20;;;;;;;21.32;28.66;101590.97;4964280;28;20452;-70
2023/05/13 10:04:38;;;;;;;4.47;4.07;;;;;;;21.22;28.03;101577.91;4963872;29;20432;-69
2023/05/13 10:07:08;;;;;;;5.33;4.30;;;;;;;21.55;27.58;101576.06;4955319;29;20433;-70
2023/05/13 10:09:38;;;;;;;4.07;3.67;;;;;;;21.60;27.30;101578.88;4961262;29;20981;-69
2023/05/13 10:12:10;;;;;;;8.87;4.53;;;;;;;21.25;27.11;101588.41;4962193;29;20412;-68
2023/05/13 10:14:40;;;;;;;5.50;3.97;;;;;;;21.42;26.94;101577.31;4964246;28;20428;-68
2023/05/13 10:17:10;;;;;;;4.10;3.80;;;;;;;21.55;26.63;101578.84;4960383;29;20434;-68
2023/05/13 10:19:40;;;;;;;9.23;4.33;;;;;;;21.35;26.27;101581.38;4958842;28;20448;-68
2023/05/13 10:22:09;;;;;;;4.23;3.83;;;;;;;21.57;25.90;101573.91;4955583;29;20524;-69
2023/05/13 10:24:39;;;;;;;5.07;3.93;;;;;;;21.53;26.51;101579.13;4952825;28;21125;-69
2023/05/13 10:27:10;;;;;;;3.33;3.03;;;;;;;21.70;26.81;101573.50;4955559;28;20436;-69
2023/05/13 10:29:40;;;;;;;4.60;4.10;;;;;;;21.95;26.49;101568.28;4952227;29;20874;-68
2023/05/13 10:32:11;;;;;;;4.40;4.00;;;;;;;21.82;26.43;101582.44;4954705;28;20447;-68
2023/05/13 10:34:42;;;;;;;3.50;3.20;;;;;;;21.85;26.92;101583.84;4952756;29;20452;-69
2023/05/13 10:37:48;;;;;;;5.27;3.87;;;;;;;22.04;26.63;101574.97;4953375;29;20428;-69
2023/05/13 10:40:32;;;;;;;6.10;3.80;;;;;;;21.81;26.10;101575.28;4948215;29;20434;-70
2023/05/13 10:43:13;;;;;;;6.37;4.60;;;;;;;22.08;26.50;101567.84;4967939;28;20454;-70
2023/05/13 10:45:46;;;;;;;9.47;4.43;;;;;;;21.98;26.28;101564.97;4952657;28;20458;-69
2023/05/13 10:48:17;;;;;;;4.10;3.67;;;;;;;21.93;25.98;101561.34;4952207;29;20415;-68
2023/05/13 10:50:54;;;;;;;4.30;3.57;;;;;;;22.20;25.91;101561.31;4955130;28;20460;-69
2023/05/13 10:53:25;;;;;;;8.20;3.57;;;;;;;22.09;25.37;101583.28;4949974;29;20403;-70
2023/05/13 10:55:58;;;;;;;8.30;3.80;;;;;;;21.98;25.39;101570.50;5091998;23;20475;-67
2023/05/13 10:58:30;;;;;;;5.37;3.60;;;;;;;22.10;25.36;101571.16;4983768;28;20819;-68
2023/05/13 11:01:15;;;;;;;4.13;3.40;;;;;;;22.13;24.83;101574.47;4991767;28;20471;-69
2023/05/13 11:03:53;;;;;;;6.07;4.00;;;;;;;21.83;24.34;101578.59;4991722;28;20405;-67
2023/05/13 11:06:25;;;;;;;4.80;3.73;;;;;;;21.90;24.96;101576.47;5003953;28;20663;-69
2023/05/13 11:08:54;;;;;;;4.57;3.83;;;;;;;21.69;24.69;101575.41;5000493;28;20441;-68
2023/05/13 11:11:32;;;;;;;4.53;3.17;;;;;;;21.82;24.35;101574.19;4992913;28;20464;-68
2023/05/13 11:14:15;;;;;;;6.30;3.93;;;;;;;22.08;24.83;101564.25;4987072;28;20467;-67
2023/05/13 11:16:49;;;;;;;4.27;3.90;;;;;;;22.19;24.47;101570.69;4988872;28;20457;-69
2023/05/13 11:19:25;;;;;;;4.13;3.73;;;;;;;22.03;24.34;101566.94;4988722;28;20493;-67
2023/05/13 11:21:58;;;;;;;3.83;3.30;;;;;;;22.06;24.66;101560.94;5001053;28;20441;-68
2023/05/13 11:24:27;;;;;;;6.33;4.47;;;;;;;22.32;24.99;101560.03;4990872;28;20556;-68
2023/05/13 11:26:57;;;;;;;5.50;3.97;;;;;;;22.52;25.09;101559.34;4992483;28;20470;-66
2023/05/13 11:29:31;;;;;;;5.07;3.57;;;;;;;22.35;24.58;101542.97;4992257;28;20468;-69
2023/05/13 11:32:01;;;;;;;11.27;4.63;;;;;;;22.24;24.04;101556.94;4990837;28;20423;-67
2023/05/13 11:34:33;;;;;;;6.00;3.73;;;;;;;22.21;24.53;101560.22;4991516;28;20464;-68
2023/05/13 11:37:10;;;;;;;4.63;2.90;;;;;;;22.54;24.23;101541.44;4987686;28;20401;-68
2023/05/13 11:39:41;;;;;;;5.37;4.03;;;;;;;22.79;24.50;101554.59;4989403;28;20445;-67
2023/05/13 11:42:11;;;;;;;8.40;7.60;;;;;;;22.95;24.13;101545.28;4992060;28;20471;-68
2023/05/13 11:44:46;;;;;;;7.93;4.50;;;;;;;23.06;24.37;101548.09;4989961;28;20453;-67